Time;durP1;ratioP1;P1;durP2;ratioP2;P2;SDS_P1;SDS_P2;PMS_P1;PMS_P2;Temp;Humidity;BMP_temperature;BMP_pressure;BME280_temperature;BME280_humidity;BME280_pressure;Samples;Min_cycle;Max_cycle;Signal;HPM_P1;HPM_P2
2023/12/10 00:00:06;;;;;;;27.47;6.50;;;10.40;99.90;;;;;;5062067;28;20481;-64
2023/12/10 00:02:33;;;;;;;27.00;6.67;;;10.40;99.90;;;;;;5052886;28;20970;-65
2023/12/10 00:05:00;;;;;;;28.27;7.20;;;10.40;99.90;;;;;;5053178;28;20476;-64
2023/12/10 00:07:27;;;;;;;29.00;5.30;;;10.50;99.90;;;;;;5052934;28;20940;-64
2023/12/10 00:09:55;;;;;;;23.20;5.17;;;10.40;99.90;;;;;;5053011;28;20476;-64
2023/12/10 00:12:23;;;;;;;24.13;4.83;;;10.50;99.90;;;;;;5053166;28;20442;-64
2023/12/10 00:14:53;;;;;;;29.30;5.40;;;10.50;99.90;;;;;;5053197;28;20450;-64
2023/12/10 00:17:20;;;;;;;22.87;4.93;;;10.60;99.90;;;;;;5053247;28;20437;-65
2023/12/10 00:19:47;;;;;;;30.97;5.50;;;10.60;99.90;;;;;;5053003;28;20472;-64
2023/12/10 00:22:14;;;;;;;21.73;5.10;;;10.50;99.90;;;;;;5052645;28;20457;-64
2023/12/10 00:24:42;;;;;;;27.97;4.70;;;10.60;99.90;;;;;;5052803;28;20504;-64
2023/12/10 00:27:11;;;;;;;28.93;5.33;;;10.60;99.90;;;;;;5053005;28;20456;-64
2023/12/10 00:29:37;;;;;;;21.90;5.50;;;10.60;99.90;;;;;;5052720;28;20995;-64
2023/12/10 00:32:05;;;;;;;29.97;6.30;;;10.60;99.90;;;;;;5052704;28;20448;-63
2023/12/10 00:34:31;;;;;;;21.53;5.30;;;10.60;99.90;;;;;;5053064;28;20438;-63
2023/12/10 00:36:58;;;;;;;28.40;5.70;;;10.60;99.90;;;;;;5053046;28;20447;-64
2023/12/10 00:39:25;;;;;;;24.73;5.23;;;10.60;99.90;;;;;;5052889;28;20449;-64
2023/12/10 00:41:52;;;;;;;25.90;5.50;;;10.50;99.90;;;;;;5052783;28;20456;-64
2023/12/10 00:44:20;;;;;;;32.90;5.50;;;10.50;99.90;;;;;;5052615;28;20516;-64
2023/12/10 00:46:47;;;;;;;23.03;4.90;;;10.50;99.90;;;;;;5052854;28;20511;-64
2023/12/10 00:49:14;;;;;;;24.13;5.33;;;10.50;99.90;;;;;;5052742;28;20445;-64
2023/12/10 00:51:40;;;;;;;24.63;4.80;;;10.50;99.90;;;;;;5052502;28;20536;-64
2023/12/10 00:54:07;;;;;;;25.67;5.30;;;10.50;99.90;;;;;;5052982;28;20445;-64
2023/12/10 00:56:35;;;;;;;22.37;5.30;;;10.60;99.90;;;;;;5052779;28;20455;-63
2023/12/10 00:59:01;;;;;;;28.60;5.37;;;10.50;99.90;;;;;;5052229;28;20532;-64
2023/12/10 01:01:29;;;;;;;28.87;5.00;;;10.60;99.90;;;;;;5052263;28;20480;-64
2023/12/10 01:03:56;;;;;;;30.80;4.90;;;10.70;99.90;;;;;;5052156;28;20481;-64
2023/12/10 01:06:23;;;;;;;24.93;4.40;;;10.60;99.90;;;;;;5054584;28;20449;-64
2023/12/10 01:08:50;;;;;;;30.07;5.47;;;10.70;99.90;;;;;;5056293;28;20445;-64
2023/12/10 01:11:17;;;;;;;24.33;5.93;;;10.60;99.90;;;;;;5056000;28;20477;-63
2023/12/10 01:13:44;;;;;;;33.73;6.70;;;10.70;99.90;;;;;;5056344;28;20441;-63
2023/12/10 01:16:16;;;;;;;30.73;7.17;;;10.70;99.90;;;;;;5056499;28;20560;-64
2023/12/10 01:18:44;;;;;;;28.87;6.90;;;10.70;99.90;;;;;;5056327;28;20426;-64
2023/12/10 01:21:11;;;;;;;25.83;4.90;;;10.70;99.90;;;;;;5055953;28;20462;-64
2023/12/10 01:23:38;;;;;;;22.53;5.40;;;10.70;99.90;;;;;;5056437;28;20871;-64
2023/12/10 01:26:06;;;;;;;26.00;5.60;;;10.70;99.90;;;;;;5056200;28;20446;-63
2023/12/10 01:28:33;;;;;;;21.10;5.40;;;10.70;99.90;;;;;;5056067;28;20977;-63
2023/12/10 01:30:59;;;;;;;24.80;5.40;;;10.80;99.80;;;;;;5056013;28;20552;-63
2023/12/10 01:33:26;;;;;;;25.37;6.30;;;10.80;99.70;;;;;;5056179;28;20441;-64
2023/12/10 01:35:55;;;;;;;24.87;5.10;;;10.80;99.20;;;;;;5056038;28;20477;-64
2023/12/10 01:38:22;;;;;;;24.07;5.63;;;10.80;99.10;;;;;;5056464;28;20448;-64
2023/12/10 01:40:49;;;;;;;23.67;4.17;;;10.80;99.30;;;;;;5055797;28;20469;-63
2023/12/10 01:43:17;;;;;;;35.90;6.77;;;10.80;99.30;;;;;;5055449;28;20454;-64
2023/12/10 01:45:47;;;;;;;21.30;5.50;;;10.80;98.90;;;;;;5055536;28;20483;-64
2023/12/10 01:48:14;;;;;;;24.47;4.43;;;10.80;98.70;;;;;;5055900;28;20544;-64
2023/12/10 01:50:41;;;;;;;22.30;4.90;;;10.80;98.30;;;;;;5055415;28;20465;-63
2023/12/10 01:53:09;;;;;;;27.97;5.67;;;10.80;98.50;;;;;;5055494;28;20528;-63
2023/12/10 01:55:36;;;;;;;27.87;5.40;;;10.80;98.50;;;;;;5055170;28;20447;-63
2023/12/10 01:58:04;;;;;;;30.73;4.80;;;10.70;98.40;;;;;;5054898;28;20440;-63
2023/12/10 02:00:32;;;;;;;18.10;3.63;;;10.70;98.60;;;;;;5055029;28;20851;-63
2023/12/10 02:03:00;;;;;;;23.13;4.20;;;10.70;98.60;;;;;;5055156;28;20461;-64
2023/12/10 02:05:27;;;;;;;24.47;4.93;;;10.70;98.70;;;;;;5055958;28;20489;-63
2023/12/10 02:07:55;;;;;;;16.80;4.10;;;10.70;98.60;;;;;;5055164;28;20441;-64
2023/12/10 02:10:23;;;;;;;21.37;4.03;;;10.70;98.80;;;;;;5055190;28;20474;-63
2023/12/10 02:12:52;;;;;;;22.30;4.57;;;10.60;98.60;;;;;;5055507;28;20445;-63
2023/12/10 02:15:19;;;;;;;21.90;4.83;;;10.70;98.60;;;;;;5055794;28;20437;-63
2023/12/10 02:17:46;;;;;;;22.50;5.33;;;10.70;98.50;;;;;;5054680;28;20533;-64
2023/12/10 02:20:14;;;;;;;22.30;3.90;;;10.60;98.20;;;;;;5055397;28;20495;-63
2023/12/10 02:22:47;;;;;;;22.43;4.67;;;10.60;98.50;;;;;;5055534;28;20819;-63
2023/12/10 02:25:15;;;;;;;18.87;4.40;;;10.60;98.30;;;;;;5055277;28;20458;-64
2023/12/10 02:27:44;;;;;;;15.07;4.47;;;10.70;98.20;;;;;;5055200;28;20471;-63
2023/12/10 02:30:11;;;;;;;14.90;3.80;;;10.60;97.90;;;;;;5054933;28;20465;-64
2023/12/10 02:32:39;;;;;;;16.73;4.10;;;10.60;97.00;;;;;;5054731;28;20445;-64
2023/12/10 02:35:07;;;;;;;14.90;4.03;;;10.60;97.40;;;;;;5054658;28;20488;-63
2023/12/10 02:37:34;;;;;;;17.70;3.77;;;10.60;97.20;;;;;;5054454;28;20446;-63
2023/12/10 02:40:03;;;;;;;12.93;3.90;;;10.50;96.60;;;;;;5054491;28;20828;-63
2023/12/10 02:42:29;;;;;;;17.10;4.23;;;10.60;96.70;;;;;;5054249;28;20936;-63
2023/12/10 02:44:58;;;;;;;24.30;4.80;;;10.60;96.30;;;;;;5054213;28;20480;-63
2023/12/10 02:47:25;;;;;;;19.33;4.40;;;10.60;96.20;;;;;;5054033;28;20947;-64
2023/12/10 02:49:52;;;;;;;23.77;4.50;;;10.60;96.30;;;;;;5054103;28;20477;-63
2023/12/10 02:52:22;;;;;;;15.23;3.33;;;10.60;96.30;;;;;;5054026;28;20450;-63
2023/12/10 02:54:49;;;;;;;20.80;3.60;;;10.60;96.10;;;;;;5054358;28;20429;-63
2023/12/10 02:57:15;;;;;;;20.00;3.93;;;10.60;96.30;;;;;;5054258;28;20872;-63
2023/12/10 02:59:42;;;;;;;12.57;3.80;;;10.60;97.20;;;;;;5060867;28;20862;-62
2023/12/10 03:02:10;;;;;;;16.90;4.80;;;10.50;97.70;;;;;;5073706;28;20935;-62
2023/12/10 03:04:37;;;;;;;14.50;3.03;;;10.40;97.70;;;;;;5073860;28;20484;-62
2023/12/10 03:07:04;;;;;;;17.87;3.70;;;10.40;98.30;;;;;;5073947;28;20451;-61
2023/12/10 03:09:32;;;;;;;13.70;4.23;;;10.30;99.00;;;;;;5074399;28;20535;-60
2023/12/10 03:11:58;;;;;;;12.47;3.97;;;10.30;99.30;;;;;;5073781;28;20444;-61
2023/12/10 03:14:25;;;;;;;22.63;4.73;;;10.20;99.20;;;;;;5073795;28;20471;-61
2023/12/10 03:16:52;;;;;;;20.23;3.23;;;10.10;99.90;;;;;;5073830;28;20447;-61
2023/12/10 03:19:20;;;;;;;14.80;3.23;;;10.10;99.90;;;;;;5073557;28;20445;-61
2023/12/10 03:21:47;;;;;;;15.67;2.53;;;9.90;99.90;;;;;;5073724;28;20443;-61
2023/12/10 03:24:13;;;;;;;16.23;3.10;;;9.90;99.90;;;;;;5073604;28;20480;-61
2023/12/10 03:26:40;;;;;;;19.03;4.13;;;9.80;99.90;;;;;;5073640;28;20443;-61
2023/12/10 03:29:07;;;;;;;25.43;5.00;;;9.70;99.90;;;;;;5073376;28;20454;-61
2023/12/10 03:31:34;;;;;;;16.23;3.50;;;9.70;99.90;;;;;;5073478;28;20530;-61
2023/12/10 03:34:00;;;;;;;23.37;5.50;;;9.60;99.90;;;;;;5073595;28;20445;-62
2023/12/10 03:36:28;;;;;;;14.53;3.40;;;9.60;99.90;;;;;;5073091;28;20961;-61
2023/12/10 03:38:55;;;;;;;16.87;4.00;;;9.50;99.90;;;;;;5073607;28;20452;-61
2023/12/10 03:41:22;;;;;;;15.20;2.87;;;9.50;99.90;;;;;;5073406;28;20473;-61
2023/12/10 03:43:49;;;;;;;19.20;3.30;;;9.50;99.90;;;;;;5072807;28;20832;-61
2023/12/10 03:46:15;;;;;;;22.07;3.60;;;9.40;99.90;;;;;;5073308;28;20567;-61
2023/12/10 03:48:42;;;;;;;25.10;4.17;;;9.40;99.90;;;;;;5073371;28;20441;-61
2023/12/10 03:51:09;;;;;;;15.60;3.73;;;9.40;99.90;;;;;;5073054;28;20465;-62
2023/12/10 03:53:37;;;;;;;18.43;4.47;;;9.40;99.90;;;;;;5073198;28;20441;-61
2023/12/10 03:56:05;;;;;;;20.07;3.97;;;9.40;99.90;;;;;;5073325;28;20447;-62
2023/12/10 03:58:32;;;;;;;15.13;3.30;;;9.40;99.90;;;;;;5073281;28;20444;-62
2023/12/10 04:00:59;;;;;;;14.53;3.17;;;9.40;99.90;;;;;;5073188;28;20460;-62
2023/12/10 04:03:25;;;;;;;22.80;4.17;;;9.40;99.90;;;;;;5073034;28;20456;-62
2023/12/10 04:05:52;;;;;;;21.00;4.13;;;9.40;99.90;;;;;;5073119;28;20511;-62
2023/12/10 04:08:18;;;;;;;17.70;4.00;;;9.40;99.90;;;;;;5073143;28;20459;-62
2023/12/10 04:10:46;;;;;;;18.20;4.60;;;9.50;99.90;;;;;;5073224;28;20974;-62
2023/12/10 04:13:13;;;;;;;19.63;3.60;;;9.50;99.90;;;;;;5072561;28;20287;-61
2023/12/10 04:15:41;;;;;;;15.47;5.30;;;9.50;99.90;;;;;;5072837;28;20939;-62
2023/12/10 04:18:08;;;;;;;22.53;4.43;;;9.50;99.90;;;;;;5072735;28;20951;-63
2023/12/10 04:20:34;;;;;;;19.33;3.37;;;9.60;99.90;;;;;;5072667;28;20970;-62
2023/12/10 04:23:01;;;;;;;17.43;4.77;;;9.50;99.90;;;;;;5072783;28;20452;-63
2023/12/10 04:25:28;;;;;;;18.37;3.50;;;9.50;99.90;;;;;;5072910;28;20487;-63
2023/12/10 04:27:56;;;;;;;18.93;4.03;;;9.50;99.90;;;;;;5073071;28;20458;-63
2023/12/10 04:30:24;;;;;;;21.80;4.13;;;9.50;99.90;;;;;;5072902;28;20463;-63
2023/12/10 04:32:51;;;;;;;25.30;4.30;;;9.60;99.90;;;;;;5072673;28;21041;-63
2023/12/10 04:35:18;;;;;;;15.67;4.47;;;9.60;99.90;;;;;;5072546;28;20433;-62
2023/12/10 04:37:44;;;;;;;15.60;4.10;;;9.60;99.90;;;;;;5072985;28;20502;-63
2023/12/10 04:40:12;;;;;;;17.67;3.93;;;9.60;99.90;;;;;;5073076;28;20461;-63
2023/12/10 04:42:40;;;;;;;15.83;3.93;;;9.60;99.90;;;;;;5076713;28;20445;-63
2023/12/10 04:45:09;;;;;;;15.13;4.30;;;9.60;99.90;;;;;;5076293;28;20512;-63
2023/12/10 04:47:36;;;;;;;25.50;5.10;;;9.60;99.90;;;;;;5076661;28;20462;-63
2023/12/10 04:50:03;;;;;;;18.87;3.93;;;9.60;99.90;;;;;;5076553;28;20461;-63
2023/12/10 04:52:30;;;;;;;18.90;3.63;;;9.70;99.90;;;;;;5076191;28;20436;-63
2023/12/10 04:54:58;;;;;;;21.13;3.90;;;9.80;99.90;;;;;;5076380;28;20494;-63
2023/12/10 04:57:26;;;;;;;21.70;4.20;;;9.80;99.90;;;;;;5076378;28;20442;-63
2023/12/10 04:59:52;;;;;;;15.47;3.63;;;9.80;99.90;;;;;;5076034;28;20978;-63
2023/12/10 05:02:21;;;;;;;16.13;4.17;;;9.80;99.90;;;;;;5076293;28;20443;-63
2023/12/10 05:04:47;;;;;;;21.37;4.33;;;9.80;99.90;;;;;;5075857;28;20464;-63
2023/12/10 05:07:14;;;;;;;21.93;4.30;;;9.90;99.90;;;;;;5076232;28;20441;-63
2023/12/10 05:09:41;;;;;;;23.53;4.20;;;10.00;99.90;;;;;;5075859;28;20827;-64
2023/12/10 05:12:08;;;;;;;19.80;3.90;;;10.00;99.90;;;;;;5075790;28;20448;-63
2023/12/10 05:14:35;;;;;;;17.67;4.63;;;10.00;99.80;;;;;;5076063;28;20447;-63
2023/12/10 05:17:02;;;;;;;17.83;3.83;;;10.00;99.00;;;;;;5076147;28;20441;-63
2023/12/10 05:19:30;;;;;;;18.93;4.27;;;10.10;99.00;;;;;;5075631;28;20943;-63
2023/12/10 05:21:57;;;;;;;20.37;3.50;;;10.10;98.20;;;;;;5076020;28;20437;-63
2023/12/10 05:24:23;;;;;;;18.43;4.03;;;10.10;98.30;;;;;;5075960;28;20451;-63
2023/12/10 05:26:50;;;;;;;17.83;3.50;;;10.10;97.60;;;;;;5075885;28;20495;-63
2023/12/10 05:29:17;;;;;;;13.10;2.80;;;10.10;97.50;;;;;;5075804;28;20451;-63
2023/12/10 05:31:44;;;;;;;15.07;3.10;;;10.20;97.40;;;;;;5075934;28;20437;-63
2023/12/10 05:34:11;;;;;;;19.43;4.77;;;10.20;97.00;;;;;;5075394;28;20440;-63
2023/12/10 05:36:39;;;;;;;17.97;3.00;;;10.20;96.90;;;;;;5076157;28;20437;-63
2023/12/10 05:39:06;;;;;;;21.53;3.77;;;10.20;96.70;;;;;;5075999;28;20447;-64
2023/12/10 05:41:33;;;;;;;14.47;4.10;;;10.20;96.60;;;;;;5075671;28;20877;-63
2023/12/10 05:44:00;;;;;;;22.43;3.33;;;10.20;96.10;;;;;;5075510;28;20444;-63
2023/12/10 05:46:26;;;;;;;14.27;2.90;;;10.20;96.00;;;;;;5075756;28;20484;-63
2023/12/10 05:48:53;;;;;;;19.07;3.50;;;10.20;96.00;;;;;;5075636;28;20786;-63
2023/12/10 05:51:20;;;;;;;16.23;4.17;;;10.30;95.90;;;;;;5074961;28;20978;-63
2023/12/10 05:53:47;;;;;;;13.77;3.03;;;10.30;95.80;;;;;;5075122;28;20441;-64
2023/12/10 05:56:14;;;;;;;11.53;2.80;;;10.30;96.00;;;;;;5075415;28;20447;-63
2023/12/10 05:58:41;;;;;;;17.57;3.20;;;10.30;95.60;;;;;;5075337;28;20446;-63
2023/12/10 06:01:07;;;;;;;16.97;4.03;;;10.30;95.60;;;;;;5055504;28;20495;-63
2023/12/10 06:03:34;;;;;;;16.10;3.73;;;10.30;95.70;;;;;;5054966;28;20468;-63
2023/12/10 06:06:01;;;;;;;14.90;3.57;;;10.30;95.80;;;;;;5055100;28;20593;-64
2023/12/10 06:08:28;;;;;;;14.73;3.90;;;10.30;95.80;;;;;;5055209;28;20446;-63
2023/12/10 06:10:56;;;;;;;15.20;3.97;;;10.30;95.30;;;;;;5055063;28;20466;-63
2023/12/10 06:13:23;;;;;;;11.63;2.47;;;10.30;95.40;;;;;;5055026;28;20883;-63
2023/12/10 06:15:50;;;;;;;15.90;3.30;;;10.30;95.40;;;;;;5055180;28;20437;-63
2023/12/10 06:18:17;;;;;;;21.47;3.70;;;10.30;95.20;;;;;;5055060;28;20445;-64
2023/12/10 06:20:43;;;;;;;17.30;3.87;;;10.30;95.30;;;;;;5054913;28;20457;-63
2023/12/10 06:23:10;;;;;;;14.40;3.63;;;10.30;95.20;;;;;;5054896;28;20446;-63
2023/12/10 06:25:37;;;;;;;12.87;3.17;;;10.30;95.30;;;;;;5054750;28;20481;-62
2023/12/10 06:28:05;;;;;;;14.30;3.80;;;10.40;95.60;;;;;;5054866;28;20454;-63
2023/12/10 06:30:32;;;;;;;17.77;3.30;;;10.40;95.40;;;;;;5054489;28;20461;-63
2023/12/10 06:32:59;;;;;;;11.77;2.80;;;10.40;95.40;;;;;;5054375;28;20939;-63
2023/12/10 06:35:25;;;;;;;10.90;3.60;;;10.40;95.60;;;;;;5054640;28;20444;-63
2023/12/10 06:37:52;;;;;;;19.57;3.53;;;10.40;95.60;;;;;;5054754;28;20448;-63
2023/12/10 06:40:19;;;;;;;16.50;3.80;;;10.40;95.70;;;;;;5054608;28;20465;-63
2023/12/10 06:42:46;;;;;;;12.43;3.37;;;10.40;95.50;;;;;;5054691;28;20449;-63
2023/12/10 06:45:14;;;;;;;14.87;3.73;;;10.40;95.70;;;;;;5054530;28;20485;-63
2023/12/10 06:47:42;;;;;;;13.80;3.30;;;10.30;95.70;;;;;;5054430;28;20452;-63
2023/12/10 06:50:10;;;;;;;21.10;4.03;;;10.40;95.50;;;;;;5054265;28;20574;-62
2023/12/10 06:52:36;;;;;;;14.73;3.37;;;10.40;95.50;;;;;;5054029;28;20452;-62
2023/12/10 06:55:03;;;;;;;16.60;2.83;;;10.40;95.80;;;;;;5054263;28;20449;-63
2023/12/10 06:57:30;;;;;;;14.03;3.60;;;10.40;95.80;;;;;;5054246;28;20441;-63
2023/12/10 06:59:57;;;;;;;15.83;4.17;;;10.40;95.80;;;;;;5054663;28;20458;-63
2023/12/10 07:02:25;;;;;;;16.87;3.27;;;10.40;95.50;;;;;;5054058;28;20452;-63
2023/12/10 07:04:52;;;;;;;12.63;4.33;;;10.30;95.90;;;;;;5053580;28;20432;-63
2023/12/10 07:07:19;;;;;;;20.37;3.40;;;10.40;96.00;;;;;;5053996;28;20489;-63
2023/12/10 07:09:46;;;;;;;11.77;2.70;;;10.40;95.70;;;;;;5054001;28;20477;-63
2023/12/10 07:12:14;;;;;;;20.63;3.60;;;10.40;96.00;;;;;;5054009;28;20450;-63
2023/12/10 07:14:41;;;;;;;12.30;3.67;;;10.50;95.70;;;;;;5053775;28;20618;-63
2023/12/10 07:17:07;;;;;;;14.33;3.70;;;10.50;95.70;;;;;;5053791;28;20448;-63
2023/12/10 07:19:36;;;;;;;17.13;3.53;;;10.40;95.70;;;;;;5053682;28;20556;-63
2023/12/10 07:22:03;;;;;;;13.73;3.63;;;10.40;95.40;;;;;;5053773;28;20443;-63
2023/12/10 07:24:30;;;;;;;12.60;3.53;;;10.50;95.60;;;;;;5053402;28;20973;-63
2023/12/10 07:26:56;;;;;;;18.20;3.50;;;10.50;95.50;;;;;;5053504;28;20487;-62
2023/12/10 07:29:23;;;;;;;11.53;2.33;;;10.50;96.00;;;;;;5053575;28;20544;-63
2023/12/10 07:31:50;;;;;;;13.80;3.40;;;10.40;95.70;;;;;;5053604;28;20444;-63
2023/12/10 07:34:17;;;;;;;23.83;6.90;;;10.50;95.60;;;;;;5053440;28;20446;-63
2023/12/10 07:36:45;;;;;;;18.57;3.60;;;10.40;95.50;;;;;;5053333;28;20438;-63
2023/12/10 07:39:13;;;;;;;25.20;4.57;;;10.40;95.50;;;;;;5053247;28;20445;-63
2023/12/10 07:41:39;;;;;;;22.23;4.83;;;10.40;95.80;;;;;;5053507;28;20450;-63
2023/12/10 07:44:07;;;;;;;17.40;3.50;;;10.50;95.70;;;;;;5053110;28;20823;-63
2023/12/10 07:46:33;;;;;;;23.90;3.90;;;10.50;95.40;;;;;;5052955;28;20995;-63
2023/12/10 07:49:00;;;;;;;14.33;3.93;;;10.50;95.20;;;;;;5053357;28;20445;-63
2023/12/10 07:51:27;;;;;;;16.60;2.80;;;10.50;95.40;;;;;;5053294;28;20472;-63
2023/12/10 07:53:55;;;;;;;23.03;3.50;;;10.50;95.20;;;;;;5053213;28;20437;-63
2023/12/10 07:56:22;;;;;;;19.10;3.83;;;10.50;95.10;;;;;;5052906;28;20935;-63
2023/12/10 07:58:48;;;;;;;17.20;3.93;;;10.50;95.00;;;;;;5053229;28;20456;-63
2023/12/10 08:01:15;;;;;;;15.20;3.17;;;10.40;95.40;;;;;;5053140;28;20457;-63
2023/12/10 08:03:42;;;;;;;14.53;3.33;;;10.50;95.40;;;;;;5052866;28;20460;-63
2023/12/10 08:06:09;;;;;;;15.47;3.30;;;10.40;95.40;;;;;;5053107;28;20867;-63
2023/12/10 08:08:36;;;;;;;12.53;3.93;;;10.50;95.60;;;;;;5053112;28;20453;-63
2023/12/10 08:11:05;;;;;;;13.27;2.90;;;10.40;95.60;;;;;;5053033;28;20540;-63
2023/12/10 08:13:32;;;;;;;17.70;3.80;;;10.40;95.50;;;;;;5052790;28;20460;-63
2023/12/10 08:15:59;;;;;;;15.10;3.60;;;10.40;95.90;;;;;;5054567;28;20445;-63
2023/12/10 08:18:26;;;;;;;12.70;3.30;;;10.40;96.10;;;;;;5056938;28;20879;-63
2023/12/10 08:20:52;;;;;;;18.90;3.57;;;10.40;95.70;;;;;;5057044;28;20461;-63
2023/12/10 08:23:19;;;;;;;13.87;3.33;;;10.40;96.00;;;;;;5057228;28;20445;-63
2023/12/10 08:25:46;;;;;;;15.53;3.53;;;10.40;96.00;;;;;;5057068;28;20493;-63
2023/12/10 08:28:14;;;;;;;19.40;5.03;;;10.30;96.30;;;;;;5057117;28;20489;-63
2023/12/10 08:30:41;;;;;;;15.73;3.53;;;10.30;96.30;;;;;;5056937;28;20460;-63
2023/12/10 08:33:08;;;;;;;14.57;3.63;;;10.30;96.30;;;;;;5056988;28;20511;-63
2023/12/10 08:35:34;;;;;;;19.90;4.00;;;10.40;96.10;;;;;;5056609;28;20447;-63
2023/12/10 08:38:01;;;;;;;11.00;3.43;;;10.40;96.20;;;;;;5056631;28;20998;-63
2023/12/10 08:40:28;;;;;;;10.70;3.00;;;10.40;95.90;;;;;;5056552;28;20983;-63
2023/12/10 08:42:55;;;;;;;20.80;4.77;;;10.40;95.80;;;;;;5056887;28;20441;-63
2023/12/10 08:45:23;;;;;;;15.90;3.93;;;10.40;96.00;;;;;;5056718;28;20524;-64
2023/12/10 08:47:50;;;;;;;19.57;3.73;;;10.40;96.40;;;;;;5056976;28;20499;-63
2023/12/10 08:50:17;;;;;;;17.23;3.87;;;10.40;96.20;;;;;;5056863;28;20457;-63
2023/12/10 08:52:43;;;;;;;17.57;3.83;;;10.40;96.40;;;;;;5056924;28;20442;-63
2023/12/10 08:55:10;;;;;;;20.53;3.77;;;10.40;96.30;;;;;;5056610;28;20451;-63
2023/12/10 08:57:37;;;;;;;16.03;2.47;;;10.40;96.50;;;;;;5056693;28;20437;-63
2023/12/10 09:00:05;;;;;;;18.17;4.80;;;10.40;96.50;;;;;;5066009;28;20490;-62
2023/12/10 09:02:33;;;;;;;9.30;2.90;;;10.40;96.90;;;;;;5076284;28;20580;-63
2023/12/10 09:05:00;;;;;;;20.33;3.80;;;10.40;96.50;;;;;;5076652;28;20417;-63
2023/12/10 09:07:27;;;;;;;13.40;2.70;;;10.40;96.80;;;;;;5076459;28;20488;-63
2023/12/10 09:09:59;;;;;;;13.10;3.70;;;10.40;96.90;;;;;;5076361;28;20465;-63
2023/12/10 09:12:26;;;;;;;13.93;3.13;;;10.50;96.70;;;;;;5076088;28;20436;-63
2023/12/10 09:14:53;;;;;;;18.80;3.23;;;10.50;96.90;;;;;;5076291;28;20527;-63
2023/12/10 09:17:19;;;;;;;22.07;3.73;;;10.50;97.00;;;;;;5076208;28;20540;-63
2023/12/10 09:19:47;;;;;;;17.23;4.13;;;10.50;97.00;;;;;;5075974;28;20997;-63
2023/12/10 09:22:14;;;;;;;16.33;3.30;;;10.50;97.00;;;;;;5076192;28;20447;-63
2023/12/10 09:24:41;;;;;;;28.40;4.10;;;10.60;97.20;;;;;;5076351;28;20441;-63
2023/12/10 09:27:08;;;;;;;19.07;4.50;;;10.60;97.30;;;;;;5075512;28;20480;-63
2023/12/10 09:29:38;;;;;;;16.17;3.30;;;10.60;97.20;;;;;;5076105;28;20492;-62
2023/12/10 09:32:05;;;;;;;13.73;4.00;;;10.60;97.30;;;;;;5076087;28;20486;-63
2023/12/10 09:34:32;;;;;;;15.27;3.17;;;10.70;97.60;;;;;;5075700;28;20451;-63
2023/12/10 09:37:00;;;;;;;16.93;3.87;;;10.70;97.80;;;;;;5076176;28;20439;-63
2023/12/10 09:39:27;;;;;;;17.23;4.43;;;10.80;98.00;;;;;;5075918;28;20491;-63
2023/12/10 09:41:54;;;;;;;13.57;3.33;;;10.80;98.00;;;;;;5076114;28;20441;-64
2023/12/10 09:44:21;;;;;;;17.50;3.70;;;10.80;97.80;;;;;;5076241;28;20444;-63
2023/12/10 09:46:48;;;;;;;18.80;4.00;;;10.80;97.60;;;;;;5076197;28;20481;-63
2023/12/10 09:49:15;;;;;;;17.67;3.40;;;10.80;97.90;;;;;;5075734;28;20455;-62
2023/12/10 09:51:42;;;;;;;17.67;4.37;;;10.90;98.30;;;;;;5076289;28;20535;-62
2023/12/10 09:54:10;;;;;;;18.40;3.70;;;10.90;98.00;;;;;;5076179;28;20448;-62
2023/12/10 09:56:37;;;;;;;21.13;4.20;;;11.00;97.60;;;;;;5075119;28;20449;-62
2023/12/10 09:59:04;;;;;;;17.90;3.97;;;11.00;97.60;;;;;;5075593;28;20958;-63
2023/12/10 10:01:31;;;;;;;19.63;3.60;;;11.10;97.40;;;;;;5075381;28;20823;-63
2023/12/10 10:03:58;;;;;;;17.00;3.50;;;11.20;97.60;;;;;;5075321;28;20461;-62
2023/12/10 10:06:25;;;;;;;16.27;3.83;;;11.20;97.20;;;;;;5075028;28;20491;-63
2023/12/10 10:08:52;;;;;;;13.27;3.73;;;11.30;96.80;;;;;;5075210;28;20444;-63
2023/12/10 10:11:20;;;;;;;12.23;3.33;;;11.40;97.20;;;;;;5075098;28;20467;-63
2023/12/10 10:13:52;;;;;;;19.70;4.00;;;11.50;97.10;;;;;;5075144;28;20946;-63
2023/12/10 10:16:19;;;;;;;25.63;4.83;;;11.60;96.90;;;;;;5074715;28;20899;-63
2023/12/10 10:18:48;;;;;;;17.13;3.77;;;11.60;96.70;;;;;;5075032;28;20447;-63
2023/12/10 10:21:15;;;;;;;17.80;3.03;;;11.60;96.70;;;;;;5074889;28;20476;-62
2023/12/10 10:23:42;;;;;;;20.83;6.63;;;11.60;97.40;;;;;;5075051;28;20447;-63
2023/12/10 10:26:10;;;;;;;14.70;4.07;;;11.70;97.50;;;;;;5074797;28;20530;-63
2023/12/10 10:28:38;;;;;;;22.37;4.57;;;11.70;97.50;;;;;;5075643;28;20483;-63
2023/12/10 10:31:05;;;;;;;21.30;4.03;;;11.70;97.60;;;;;;5074634;28;20463;-63
2023/12/10 10:33:32;;;;;;;21.67;5.13;;;11.80;97.90;;;;;;5074646;28;20444;-63
2023/12/10 10:36:00;;;;;;;14.13;3.97;;;11.70;98.30;;;;;;5074588;28;20440;-63
2023/12/10 10:38:28;;;;;;;15.93;4.40;;;11.70;98.10;;;;;;5073653;28;20440;-63
2023/12/10 10:40:57;;;;;;;24.50;5.20;;;11.70;97.80;;;;;;5074487;28;20470;-63
2023/12/10 10:43:24;;;;;;;15.63;3.90;;;11.60;97.90;;;;;;5074440;28;20447;-62
2023/12/10 10:45:54;;;;;;;26.30;5.00;;;11.60;98.40;;;;;;5074426;28;20498;-63
2023/12/10 10:48:22;;;;;;;16.83;3.93;;;11.70;98.70;;;;;;5074337;28;20569;-63
2023/12/10 10:50:50;;;;;;;17.20;4.40;;;11.70;98.70;;;;;;5074274;28;20460;-63
2023/12/10 10:53:17;;;;;;;20.23;5.00;;;11.70;98.30;;;;;;5074222;28;20817;-62
2023/12/10 10:55:48;;;;;;;13.03;3.33;;;11.70;98.10;;;;;;5073777;28;20951;-62
2023/12/10 10:58:24;;;;;;;24.63;4.10;;;11.70;97.90;;;;;;5074191;28;20429;-63
2023/12/10 11:00:50;;;;;;;24.77;6.00;;;11.80;98.40;;;;;;5073887;28;20498;-63
2023/12/10 11:03:19;;;;;;;14.07;4.27;;;11.80;98.00;;;;;;5074001;28;20461;-63
2023/12/10 11:05:46;;;;;;;18.10;4.90;;;11.80;97.30;;;;;;5074052;28;20480;-63
2023/12/10 11:08:13;;;;;;;25.40;5.13;;;12.00;97.80;;;;;;5073934;28;20483;-63
2023/12/10 11:10:43;;;;;;;16.80;3.90;;;12.10;97.70;;;;;;5073998;28;20461;-63
2023/12/10 11:13:10;;;;;;;18.13;4.30;;;12.40;97.30;;;;;;5073931;28;20444;-63
2023/12/10 11:15:36;;;;;;;26.10;4.37;;;12.60;96.50;;;;;;5073446;28;20456;-63
2023/12/10 11:18:04;;;;;;;19.23;4.90;;;12.70;95.80;;;;;;5073461;28;20443;-63
2023/12/10 11:20:33;;;;;;;13.97;3.80;;;12.80;96.00;;;;;;5073845;28;20725;-63
2023/12/10 11:23:02;;;;;;;23.27;5.93;;;13.10;95.80;;;;;;5074035;28;20444;-62
2023/12/10 11:25:29;;;;;;;13.13;3.73;;;13.10;95.10;;;;;;5073685;28;20448;-62
2023/12/10 11:27:56;;;;;;;21.80;5.17;;;13.00;95.40;;;;;;5073644;28;20480;-63
2023/12/10 11:30:23;;;;;;;26.23;4.80;;;12.90;95.20;;;;;;5073778;28;20852;-62
2023/12/10 11:32:50;;;;;;;23.90;5.87;;;12.80;95.40;;;;;;5073668;28;20899;-62
2023/12/10 11:35:18;;;;;;;27.10;5.87;;;12.80;95.60;;;;;;5073196;28;20973;-62
2023/12/10 11:37:46;;;;;;;17.70;4.50;;;12.70;95.30;;;;;;5073461;28;20440;-62
2023/12/10 11:40:13;;;;;;;15.47;3.87;;;12.70;95.70;;;;;;5073419;28;20456;-62
2023/12/10 11:42:40;;;;;;;19.43;4.37;;;12.70;95.90;;;;;;5073526;28;20445;-62
2023/12/10 11:45:08;;;;;;;18.30;4.67;;;12.80;96.00;;;;;;5073472;28;20444;-63
2023/12/10 11:47:34;;;;;;;19.50;4.40;;;13.10;94.80;;;;;;5073442;28;20480;-62
2023/12/10 11:50:04;;;;;;;22.47;4.27;;;13.30;94.20;;;;;;5073304;28;20457;-62
2023/12/10 11:52:32;;;;;;;22.63;4.30;;;13.40;93.70;;;;;;5073871;28;20444;-62
2023/12/10 11:55:00;;;;;;;18.63;3.90;;;13.50;94.40;;;;;;5074328;28;20514;-62
2023/12/10 11:57:27;;;;;;;20.10;5.20;;;13.50;93.60;;;;;;5073256;28;20947;-62
2023/12/10 11:59:56;;;;;;;19.83;4.47;;;13.60;93.30;;;;;;5063620;28;20481;-62
2023/12/10 12:02:23;;;;;;;26.13;5.73;;;13.60;93.30;;;;;;5053068;28;20876;-63
2023/12/10 12:04:51;;;;;;;25.80;5.33;;;13.30;93.90;;;;;;5053486;28;20431;-63
2023/12/10 12:07:25;;;;;;;20.30;5.60;;;13.20;94.60;;;;;;5052949;28;20501;-62
2023/12/10 12:09:52;;;;;;;18.20;4.53;;;13.00;94.90;;;;;;5053276;28;20892;-62
2023/12/10 12:12:22;;;;;;;20.17;4.33;;;12.80;95.00;;;;;;5053032;28;20946;-62
2023/12/10 12:14:49;;;;;;;21.17;4.30;;;12.60;95.90;;;;;;5053223;28;20446;-62
2023/12/10 12:17:16;;;;;;;17.83;4.10;;;12.60;95.90;;;;;;5054084;28;20445;-61
2023/12/10 12:20:02;;;;;;;19.10;4.33;;;12.50;96.30;;;;;;5073102;28;20460;-62
2023/12/10 12:22:29;;;;;;;19.77;6.00;;;12.40;96.50;;;;;;5073318;28;20483;-62
2023/12/10 12:24:56;;;;;;;24.63;4.50;;;12.40;96.90;;;;;;5073215;28;20444;-62
2023/12/10 12:27:24;;;;;;;22.37;4.47;;;12.40;97.20;;;;;;5072939;28;20885;-62
2023/12/10 12:29:51;;;;;;;25.20;5.17;;;12.30;97.10;;;;;;5073058;28;20506;-62
2023/12/10 12:32:18;;;;;;;24.90;5.30;;;12.20;97.20;;;;;;5073050;28;20437;-62
2023/12/10 12:34:44;;;;;;;21.87;4.50;;;12.20;97.70;;;;;;5073117;28;20445;-62
2023/12/10 12:37:11;;;;;;;20.30;4.90;;;12.20;98.00;;;;;;5072906;28;20527;-63